Observations for ALICANTE EL ALTET, Spain (LEAL)

LEAL 200630Z 05018KT 030V090 7000 RA FEW005 SCT012 OVC028 15/13 Q1011 NOSIG 
LEAL 200600Z 05019G30KT 9000 -RA FEW005 OVC035 15/12 Q1011 NOSIG
LEAL 200530Z 05023G34KT 9000 -RA FEW007 OVC037 15/12 Q1011 NOSIG
LEAL 200506Z 05022G34KT 4000 -RA SCT035CB BKN065 15/12 Q1010 NOSIG
LEAL 200546Z 05017G30KT 020V080 9000 -TSRA FEW007CB OVC037 15/12 Q1011 NOSIG
LEAL 200500Z 05024G40KT 020V080 4000 -TSRA SCT035CB BKN065 15/12 Q1010 NOSIG
LEAL 200439Z 05024G38KT 4000 RA SCT035CB BKN065 15/12 Q1010 NOSIG
LEAL 200430Z 05024G37KT 4000 -TSRA SCT035CB BKN065 15/12 Q1010 NOSIG
LEAL 200418Z 05024G41KT 4000 -RA SCT035CB BKN045 15/12 Q1010 NOSIG
LEAL 200452Z 05024G40KT 020V080 4000 -TSRA SCT035CB BKN065 15/12 Q1010 NOSIG
LEAL 200400Z 06027G39KT 4000 -TSRA SCT035CB BKN045 15/12 Q1010 NOSIG
LEAL 200330Z 07030G42KT 1200 R10/P2000 R28/1900 +TSRA SCT035CB BKN045 14/13 Q1009 NOSIG 
LEAL 200312Z 08028G39KT 3000 RA SCT035CB BKN045 15/13 Q1010 NOSIG
LEAL 200315Z 08028G39KT 3000 TSRA SCT035CB BKN045 15/13 Q1010 NOSIG
LEAL 200317Z 09029G39KT 1200 R10/P2000 R28/P2000 +TSRA SCT035CB BKN045 15/13 Q1010 NOSIG
LEAL 200300Z 06020G33KT 9999 -RA BKN045 16/13 Q1009 NOSIG   
LEAL 200230Z 06021G33KT 020V100 9999 BKN040 16/13 Q1010 NOSIG   
LEAL 200212Z 05023G35KT 9999 -RA FEW008 SCT012 OVC023 16/13 Q1010 NOSIG
LEAL 200200Z 05022G33KT 2000 -RA FEW008 SCT012 OVC023 15/13 Q1010 NOSIG 
LEAL 200130Z 05020G32KT 2000 RA FEW008 SCT012 OVC023 15/13 Q1011 NOSIG  
LEAL 200100Z 06017G27KT 030V090 2000 -RA FEW008 SCT012 OVC023 15/13 Q1012 NOSIG 
LEAL 200030Z 05020KT 020V090 2000 -RA FEW008 SCT012 OVC023 15/14 Q1012 NOSIG
LEAL 200005Z 06019G29KT 2000 RA FEW008 SCT012 OVC023 16/14 Q1013 NOSIG
LEAL 200000Z 05018G30KT 6000 -RA FEW008 SCT012 OVC023 15/14 Q1013 NOSIG 
LEAL 192330Z 04012KT 6000 RA FEW008 SCT012 OVC023 16/14 Q1013 NOSIG 
LEAL 192300Z 07008KT 040V100 4000 +RA FEW008 SCT015 OVC023 15/14 Q1014 NOSIG
LEAL 192235Z VRB05KT 1000 R10/P2000 R28/P2000 +RA FEW008 SCT015 OVC023 15/14 Q1014 NOSIG
LEAL 192243Z 08011KT 060V120 1000 R10/P2000 R28/P2000 +TSRA FEW008CB SCT015 OVC023 15/14 Q1014 NOSIG
LEAL 192230Z VRB02KT 2000 +RA FEW008 SCT015 OVC023 15/14 Q1014 NOSIG
LEAL 192218Z 09001KT 2000 +RA FEW008 SCT015 OVC027 15/14 Q1014 NOSIG
LEAL 192253Z 07009KT 040V100 2000 +RA FEW008 SCT015 OVC023 15/14 Q1014 NOSIG
LEAL 192200Z 02010KT 350V060 8000 -RA FEW008CB SCT015 OVC027 15/14 Q1014 TEMPO TS   
LEAL 192130Z 04011KT 2000 RA FEW008CB SCT009 OVC018 15/14 Q1015 TEMPO TS
LEAL 192100Z 04007KT 020V100 1500 +RA SCT007 OVC018 15/14 Q1015 NOSIG   
LEAL 192030Z 04005KT 340V100 1500 +RA SCT007 OVC009 15/14 Q1015 NOSIG   
LEAL 192010Z VRB03KT 2000 +RA FEW010 BKN025 OVC032 15/14 Q1015 NOSIG
LEAL 192000Z 04009KT 020V160 8000 RA FEW010 BKN025 OVC032 15/14 Q1015 NOSIG 
LEAL 191942Z 01007KT 340V050 1300 R10/P2000 +RA FEW005 OVC010 14/13 Q1015 BECMG06015KT
LEAL 191930Z 31007KT 2000 RA FEW005 OVC010 13/12 Q1015 BECMG 06015KT
LEAL 191946Z 02009KT 350V060 2500 +RA FEW010 OVC030 14/13 Q1015 BECMG 06015KT
LEAL 191900Z 30009KT 2000 -RA FEW005 OVC013 13/12 Q1015 BECMG 06015KT   
LEAL 191830Z 29010KT 2000 RA FEW036 OVC040 13/12 Q1015 BECMG 06015KT
LEAL 191800Z 30009KT 9999 -RA FEW036 OVC040 13/11 Q1015 BECMG 06015KT   
LEAL 191730Z 32010KT 9999 -RA FEW036 OVC040 13/11 Q1015 BECMG 06015KT   
LEAL 191700Z 33009KT 300V360 9999 -RA FEW036 OVC040 13/12 Q1015 BECMG 06015KT   
LEAL 191630Z 34009KT 280V020 5000 RA FEW036 OVC040 13/12 Q1015 NOSIG
LEAL 191600Z 33009KT 310V010 9000 RA FEW036 OVC042 13/11 Q1015 NOSIG
LEAL 191530Z 36007KT 330V030 8000 -RA FEW036 OVC048 13/11 Q1015 NOSIG   
LEAL 191500Z 33006KT 300V360 6000 +RA FEW040 OVC048 13/11 Q1015 NOSIG   
LEAL 191430Z 34004KT 300V010 9000 RA FEW040 OVC048 14/12 Q1015 NOSIG
LEAL 191400Z 33005KT 220V010 7000 RA FEW040 OVC051 14/12 Q1015 NOSIG
LEAL 191330Z 32005KT 250V360 9999 RA FEW040 OVC050 15/12 Q1015 NOSIG
LEAL 191300Z 31005KT 9999 -RA FEW040 OVC056 15/12 Q1015 NOSIG   
LEAL 191230Z 28003KT 240V330 9999 -RA FEW040 OVC060 15/12 Q1015 NOSIG   
LEAL 191200Z 26004KT 230V320 9999 -RA FEW040 OVC067 15/13 Q1015 NOSIG   
LEAL 191130Z 25007KT 9999 -DZ FEW040 OVC067 15/12 Q1015 NOSIG   
LEAL 191100Z 25006KT 220V280 9999 -RA FEW040 OVC067 15/12 Q1015 NOSIG   
LEAL 191030Z 27009KT 250V310 9999 FEW040 OVC067 15/12 Q1015 NOSIG   
LEAL 191000Z 27008KT 250V320 9999 -RA FEW040 OVC067 15/12 Q1015 NOSIG   
LEAL 190930Z 25006KT 230V290 9999 -SHRA FEW012 OVC067 ///TCU 14/12 Q1015 NOSIG  
LEAL 190900Z 25005KT 9999 -RA FEW012 OVC067 14/12 Q1015 NOSIG   
LEAL 190830Z 25007KT 9999 -RA FEW020 OVC067 13/12 Q1015 NOSIG   
LEAL 190800Z 26007KT 230V290 9999 -RA FEW020 OVC067 13/12 Q1015 NOSIG   
LEAL 190730Z 26008KT 9999 -RA FEW020TCU OVC065 13/12 Q1015 NOSIG
LEAL 190700Z 28006KT 9999 -RA FEW020TCU OVC065 14/12 Q1015 NOSIG
LEAL 190630Z 28004KT 250V310 9999 -RA FEW020TCU OVC065 14/13 Q1015 NOSIG
LEAL 190600Z 31004KT 280V360 9999 -RA FEW020TCU BKN032 13/12 Q1015 NOSIG